sensor_id;sensor_type;location;lat;lon;timestamp;noise_LAeq;noise_LA_min;noise_LA_max;noise_LA01;noise_LA95
81493;Laerm;70900;51.798;10.954;2024-02-26T00:01:51;41.16;29.74;52.08;;
81493;Laerm;70900;51.798;10.954;2024-02-26T00:04:17;37.64;27.45;48.99;;
81493;Laerm;70900;51.798;10.954;2024-02-26T00:06:43;34.66;27.31;42.44;;
81493;Laerm;70900;51.798;10.954;2024-02-26T00:09:08;38.80;30.02;49.89;;
81493;Laerm;70900;51.798;10.954;2024-02-26T00:11:37;31.19;25.51;40.34;;
81493;Laerm;70900;51.798;10.954;2024-02-26T00:14:02;39.58;27.30;50.99;;
81493;Laerm;70900;51.798;10.954;2024-02-26T00:16:28;35.80;27.71;43.22;;
81493;Laerm;70900;51.798;10.954;2024-02-26T00:18:53;36.16;29.03;44.96;;
81493;Laerm;70900;51.798;10.954;2024-02-26T00:21:19;41.94;31.62;51.94;;
81493;Laerm;70900;51.798;10.954;2024-02-26T00:23:44;37.67;29.87;47.42;;
81493;Laerm;70900;51.798;10.954;2024-02-26T00:26:09;39.55;30.60;49.40;;
81493;Laerm;70900;51.798;10.954;2024-02-26T00:28:36;43.31;36.87;51.21;;
81493;Laerm;70900;51.798;10.954;2024-02-26T00:31:01;42.78;32.33;52.14;;
81493;Laerm;70900;51.798;10.954;2024-02-26T00:33:27;35.85;29.31;42.66;;
81493;Laerm;70900;51.798;10.954;2024-02-26T00:35:53;36.01;27.92;43.64;;
81493;Laerm;70900;51.798;10.954;2024-02-26T00:38:18;38.39;28.41;47.65;;
81493;Laerm;70900;51.798;10.954;2024-02-26T00:40:44;41.59;33.74;49.59;;
81493;Laerm;70900;51.798;10.954;2024-02-26T00:43:09;39.74;33.68;49.33;;
81493;Laerm;70900;51.798;10.954;2024-02-26T00:45:34;40.26;29.85;52.01;;
81493;Laerm;70900;51.798;10.954;2024-02-26T00:48:00;40.63;30.99;51.61;;
81493;Laerm;70900;51.798;10.954;2024-02-26T00:50:29;40.78;31.47;51.99;;
81493;Laerm;70900;51.798;10.954;2024-02-26T00:52:55;42.06;31.31;52.67;;
81493;Laerm;70900;51.798;10.954;2024-02-26T00:55:20;37.76;27.64;50.51;;
81493;Laerm;70900;51.798;10.954;2024-02-26T00:57:45;42.60;29.40;58.86;;
81493;Laerm;70900;51.798;10.954;2024-02-26T01:00:11;41.69;32.06;57.89;;
81493;Laerm;70900;51.798;10.954;2024-02-26T01:02:37;41.71;28.85;61.31;;
81493;Laerm;70900;51.798;10.954;2024-02-26T01:05:03;41.29;30.73;56.18;;
81493;Laerm;70900;51.798;10.954;2024-02-26T01:07:29;39.91;32.30;48.58;;
81493;Laerm;70900;51.798;10.954;2024-02-26T01:09:58;41.17;30.15;50.76;;
81493;Laerm;70900;51.798;10.954;2024-02-26T01:12:23;37.98;28.02;47.26;;
81493;Laerm;70900;51.798;10.954;2024-02-26T01:14:49;38.19;26.24;45.46;;
81493;Laerm;70900;51.798;10.954;2024-02-26T01:17:14;38.43;26.60;47.55;;
81493;Laerm;70900;51.798;10.954;2024-02-26T01:19:39;36.01;26.28;46.47;;
81493;Laerm;70900;51.798;10.954;2024-02-26T01:22:06;35.17;25.37;54.21;;
81493;Laerm;70900;51.798;10.954;2024-02-26T01:24:31;39.10;30.61;50.01;;
81493;Laerm;70900;51.798;10.954;2024-02-26T01:26:56;40.87;31.46;51.81;;
81493;Laerm;70900;51.798;10.954;2024-02-26T01:29:22;38.18;31.23;45.22;;
81493;Laerm;70900;51.798;10.954;2024-02-26T01:31:47;38.11;27.71;58.81;;
81493;Laerm;70900;51.798;10.954;2024-02-26T01:34:12;37.41;27.92;48.96;;
81493;Laerm;70900;51.798;10.954;2024-02-26T01:36:39;38.12;29.16;48.45;;
81493;Laerm;70900;51.798;10.954;2024-02-26T01:39:04;37.77;30.11;46.93;;
81493;Laerm;70900;51.798;10.954;2024-02-26T01:41:29;37.07;29.13;43.58;;
81493;Laerm;70900;51.798;10.954;2024-02-26T01:43:55;40.58;34.30;48.15;;
81493;Laerm;70900;51.798;10.954;2024-02-26T01:46:20;40.59;33.85;50.03;;
81493;Laerm;70900;51.798;10.954;2024-02-26T01:48:46;40.43;34.36;48.05;;
81493;Laerm;70900;51.798;10.954;2024-02-26T01:51:12;37.43;31.10;49.13;;
81493;Laerm;70900;51.798;10.954;2024-02-26T01:53:39;37.40;28.88;56.45;;
81493;Laerm;70900;51.798;10.954;2024-02-26T01:56:05;32.63;27.65;40.32;;
81493;Laerm;70900;51.798;10.954;2024-02-26T01:58:30;33.04;27.67;40.78;;
81493;Laerm;70900;51.798;10.954;2024-02-26T02:00:56;35.69;28.34;48.04;;
81493;Laerm;70900;51.798;10.954;2024-02-26T02:03:22;39.58;30.58;52.54;;
81493;Laerm;70900;51.798;10.954;2024-02-26T02:05:48;39.59;30.32;49.88;;
81493;Laerm;70900;51.798;10.954;2024-02-26T02:08:13;36.49;28.19;48.11;;
81493;Laerm;70900;51.798;10.954;2024-02-26T02:10:39;54.77;30.71;72.70;;
81493;Laerm;70900;51.798;10.954;2024-02-26T02:13:05;42.60;33.58;54.22;;
81493;Laerm;70900;51.798;10.954;2024-02-26T02:15:31;41.58;28.93;48.85;;
81493;Laerm;70900;51.798;10.954;2024-02-26T02:17:56;39.81;32.40;46.07;;
81493;Laerm;70900;51.798;10.954;2024-02-26T02:20:25;43.57;34.61;50.41;;
81493;Laerm;70900;51.798;10.954;2024-02-26T02:22:50;37.42;28.91;53.34;;
81493;Laerm;70900;51.798;10.954;2024-02-26T02:25:15;41.57;30.80;48.72;;
81493;Laerm;70900;51.798;10.954;2024-02-26T02:27:41;45.30;36.00;53.27;;
81493;Laerm;70900;51.798;10.954;2024-02-26T02:30:07;43.95;36.45;51.46;;
81493;Laerm;70900;51.798;10.954;2024-02-26T02:32:33;42.66;35.10;52.04;;
81493;Laerm;70900;51.798;10.954;2024-02-26T02:34:59;41.02;35.84;46.96;;
81493;Laerm;70900;51.798;10.954;2024-02-26T02:37:24;41.00;33.95;47.33;;
81493;Laerm;70900;51.798;10.954;2024-02-26T02:39:50;42.80;37.45;49.04;;
81493;Laerm;70900;51.798;10.954;2024-02-26T02:42:15;43.04;36.15;51.25;;
81493;Laerm;70900;51.798;10.954;2024-02-26T02:44:40;43.91;35.46;51.74;;
81493;Laerm;70900;51.798;10.954;2024-02-26T02:47:06;41.86;34.07;50.94;;
81493;Laerm;70900;51.798;10.954;2024-02-26T02:49:31;41.46;35.61;49.73;;
81493;Laerm;70900;51.798;10.954;2024-02-26T02:51:56;40.66;35.20;45.97;;
81493;Laerm;70900;51.798;10.954;2024-02-26T02:54:22;48.24;37.59;56.99;;
81493;Laerm;70900;51.798;10.954;2024-02-26T02:56:48;48.62;42.23;54.49;;
81493;Laerm;70900;51.798;10.954;2024-02-26T02:59:13;45.05;36.08;53.24;;
81493;Laerm;70900;51.798;10.954;2024-02-26T03:01:39;44.42;37.42;55.62;;
81493;Laerm;70900;51.798;10.954;2024-02-26T03:04:04;44.82;37.31;55.18;;
81493;Laerm;70900;51.798;10.954;2024-02-26T03:06:29;46.02;39.64;54.60;;
81493;Laerm;70900;51.798;10.954;2024-02-26T03:08:55;48.16;41.19;55.24;;
81493;Laerm;70900;51.798;10.954;2024-02-26T03:11:20;47.13;38.58;52.25;;
81493;Laerm;70900;51.798;10.954;2024-02-26T03:13:45;48.04;39.87;55.27;;
81493;Laerm;70900;51.798;10.954;2024-02-26T03:16:11;48.52;39.26;56.54;;
81493;Laerm;70900;51.798;10.954;2024-02-26T03:18:38;44.60;38.11;54.33;;
81493;Laerm;70900;51.798;10.954;2024-02-26T03:21:03;51.69;37.71;67.85;;
81493;Laerm;70900;51.798;10.954;2024-02-26T03:23:29;51.05;39.94;67.59;;
81493;Laerm;70900;51.798;10.954;2024-02-26T03:25:57;48.20;40.95;59.77;;
81493;Laerm;70900;51.798;10.954;2024-02-26T03:28:23;45.14;39.44;62.57;;
81493;Laerm;70900;51.798;10.954;2024-02-26T03:30:48;46.53;33.83;54.69;;
81493;Laerm;70900;51.798;10.954;2024-02-26T03:33:13;45.32;38.98;54.66;;
81493;Laerm;70900;51.798;10.954;2024-02-26T03:35:39;54.72;39.77;70.50;;
81493;Laerm;70900;51.798;10.954;2024-02-26T03:38:04;47.69;41.53;57.56;;
81493;Laerm;70900;51.798;10.954;2024-02-26T03:40:29;47.33;42.01;57.31;;
81493;Laerm;70900;51.798;10.954;2024-02-26T03:42:55;45.87;38.94;54.58;;
81493;Laerm;70900;51.798;10.954;2024-02-26T03:45:22;54.19;39.45;70.86;;
81493;Laerm;70900;51.798;10.954;2024-02-26T03:47:48;49.53;44.54;61.13;;
81493;Laerm;70900;51.798;10.954;2024-02-26T03:50:13;49.18;44.73;54.87;;
81493;Laerm;70900;51.798;10.954;2024-02-26T03:52:38;49.31;43.20;54.49;;
81493;Laerm;70900;51.798;10.954;2024-02-26T03:55:04;48.81;42.96;56.13;;
81493;Laerm;70900;51.798;10.954;2024-02-26T03:57:29;48.83;41.60;58.14;;
81493;Laerm;70900;51.798;10.954;2024-02-26T03:59:55;50.48;38.82;65.00;;
81493;Laerm;70900;51.798;10.954;2024-02-26T04:02:21;46.67;38.49;53.66;;
81493;Laerm;70900;51.798;10.954;2024-02-26T04:04:48;48.89;40.41;60.67;;
81493;Laerm;70900;51.798;10.954;2024-02-26T04:07:13;48.27;40.81;59.32;;
81493;Laerm;70900;51.798;10.954;2024-02-26T04:09:38;46.65;42.04;63.02;;
81493;Laerm;70900;51.798;10.954;2024-02-26T04:12:04;46.85;39.62;52.97;;
81493;Laerm;70900;51.798;10.954;2024-02-26T04:14:29;48.23;43.08;59.69;;
81493;Laerm;70900;51.798;10.954;2024-02-26T04:16:55;51.54;43.02;64.88;;
81493;Laerm;70900;51.798;10.954;2024-02-26T04:19:20;49.34;42.70;57.53;;
81493;Laerm;70900;51.798;10.954;2024-02-26T04:21:45;46.45;41.98;52.14;;
81493;Laerm;70900;51.798;10.954;2024-02-26T04:24:11;47.12;41.92;53.85;;
81493;Laerm;70900;51.798;10.954;2024-02-26T04:26:36;48.34;43.70;55.87;;
81493;Laerm;70900;51.798;10.954;2024-02-26T04:29:02;56.62;45.10;69.26;;
81493;Laerm;70900;51.798;10.954;2024-02-26T04:31:27;48.93;42.79;56.85;;
81493;Laerm;70900;51.798;10.954;2024-02-26T04:33:52;48.75;43.60;55.60;;
81493;Laerm;70900;51.798;10.954;2024-02-26T04:36:18;48.75;41.60;56.05;;
81493;Laerm;70900;51.798;10.954;2024-02-26T04:38:43;55.18;46.08;68.56;;
81493;Laerm;70900;51.798;10.954;2024-02-26T04:41:09;49.44;43.80;55.83;;
81493;Laerm;70900;51.798;10.954;2024-02-26T04:43:35;47.25;43.07;52.58;;
81493;Laerm;70900;51.798;10.954;2024-02-26T04:46:06;50.82;43.19;64.81;;
81493;Laerm;70900;51.798;10.954;2024-02-26T04:48:33;48.56;44.03;57.89;;
81493;Laerm;70900;51.798;10.954;2024-02-26T04:50:58;51.74;43.26;66.89;;
81493;Laerm;70900;51.798;10.954;2024-02-26T04:53:24;49.88;41.89;63.76;;
81493;Laerm;70900;51.798;10.954;2024-02-26T04:55:49;48.70;42.63;61.26;;
81493;Laerm;70900;51.798;10.954;2024-02-26T04:58:14;49.66;42.72;59.38;;
81493;Laerm;70900;51.798;10.954;2024-02-26T05:00:40;54.17;42.95;69.72;;
81493;Laerm;70900;51.798;10.954;2024-02-26T05:03:05;46.73;42.23;56.09;;
81493;Laerm;70900;51.798;10.954;2024-02-26T05:05:30;55.75;46.22;71.28;;
81493;Laerm;70900;51.798;10.954;2024-02-26T05:07:56;52.97;44.42;65.61;;
81493;Laerm;70900;51.798;10.954;2024-02-26T05:10:21;51.95;44.42;61.92;;
81493;Laerm;70900;51.798;10.954;2024-02-26T05:12:46;51.03;42.79;63.13;;
81493;Laerm;70900;51.798;10.954;2024-02-26T05:15:12;50.76;43.64;63.62;;
81493;Laerm;70900;51.798;10.954;2024-02-26T05:17:43;51.91;44.50;65.47;;
81493;Laerm;70900;51.798;10.954;2024-02-26T05:20:08;52.69;43.99;67.63;;
81493;Laerm;70900;51.798;10.954;2024-02-26T05:22:34;50.99;46.62;57.86;;
81493;Laerm;70900;51.798;10.954;2024-02-26T05:24:59;53.38;46.90;64.04;;
81493;Laerm;70900;51.798;10.954;2024-02-26T05:27:24;55.03;46.97;66.76;;
81493;Laerm;70900;51.798;10.954;2024-02-26T05:29:50;54.13;45.96;64.19;;
81493;Laerm;70900;51.798;10.954;2024-02-26T05:32:17;57.13;46.89;70.63;;
81493;Laerm;70900;51.798;10.954;2024-02-26T05:34:42;61.66;44.53;77.96;;
81493;Laerm;70900;51.798;10.954;2024-02-26T05:37:07;56.30;46.43;67.06;;
81493;Laerm;70900;51.798;10.954;2024-02-26T05:39:33;53.04;46.38;68.33;;
81493;Laerm;70900;51.798;10.954;2024-02-26T05:41:58;56.64;45.87;69.95;;
81493;Laerm;70900;51.798;10.954;2024-02-26T05:44:25;56.78;47.30;72.55;;
81493;Laerm;70900;51.798;10.954;2024-02-26T05:46:51;58.53;46.91;68.64;;
81493;Laerm;70900;51.798;10.954;2024-02-26T05:49:16;57.76;46.75;73.96;;
81493;Laerm;70900;51.798;10.954;2024-02-26T05:51:41;56.01;47.14;69.76;;
81493;Laerm;70900;51.798;10.954;2024-02-26T05:54:07;57.91;47.46;68.56;;
81493;Laerm;70900;51.798;10.954;2024-02-26T05:56:33;56.82;46.92;73.59;;
81493;Laerm;70900;51.798;10.954;2024-02-26T05:58:58;51.53;44.85;65.46;;
81493;Laerm;70900;51.798;10.954;2024-02-26T06:01:24;52.44;45.64;67.62;;
81493;Laerm;70900;51.798;10.954;2024-02-26T06:03:51;54.02;46.22;66.89;;
81493;Laerm;70900;51.798;10.954;2024-02-26T06:06:16;56.53;45.42;72.48;;
81493;Laerm;70900;51.798;10.954;2024-02-26T06:08:42;51.43;45.63;63.35;;
81493;Laerm;70900;51.798;10.954;2024-02-26T06:11:08;57.18;46.19;71.19;;
81493;Laerm;70900;51.798;10.954;2024-02-26T06:13:34;57.55;47.56;71.31;;
81493;Laerm;70900;51.798;10.954;2024-02-26T06:15:59;56.95;47.64;68.73;;
81493;Laerm;70900;51.798;10.954;2024-02-26T06:18:24;57.73;47.85;69.00;;
81493;Laerm;70900;51.798;10.954;2024-02-26T06:20:50;61.47;48.44;76.64;;
81493;Laerm;70900;51.798;10.954;2024-02-26T06:23:15;61.42;49.26;71.51;;
81493;Laerm;70900;51.798;10.954;2024-02-26T06:25:41;58.66;49.50;76.45;;
81493;Laerm;70900;51.798;10.954;2024-02-26T06:28:07;59.32;50.03;67.62;;
81493;Laerm;70900;51.798;10.954;2024-02-26T06:30:33;55.38;49.20;66.10;;
81493;Laerm;70900;51.798;10.954;2024-02-26T06:32:58;62.16;49.64;75.88;;
81493;Laerm;70900;51.798;10.954;2024-02-26T06:35:24;60.49;50.97;69.82;;
81493;Laerm;70900;51.798;10.954;2024-02-26T06:37:49;56.83;47.33;68.85;;
81493;Laerm;70900;51.798;10.954;2024-02-26T06:40:17;58.35;48.33;73.98;;
81493;Laerm;70900;51.798;10.954;2024-02-26T06:42:43;54.25;47.48;71.98;;
81493;Laerm;70900;51.798;10.954;2024-02-26T06:45:09;59.96;48.52;70.26;;
81493;Laerm;70900;51.798;10.954;2024-02-26T06:47:34;57.32;46.88;71.05;;
81493;Laerm;70900;51.798;10.954;2024-02-26T06:49:59;56.65;46.30;67.69;;
81493;Laerm;70900;51.798;10.954;2024-02-26T06:52:26;59.65;45.65;76.99;;
81493;Laerm;70900;51.798;10.954;2024-02-26T06:54:51;58.54;44.44;71.86;;
81493;Laerm;70900;51.798;10.954;2024-02-26T06:57:20;54.10;45.65;68.19;;
81493;Laerm;70900;51.798;10.954;2024-02-26T06:59:46;54.48;44.37;68.83;;
81493;Laerm;70900;51.798;10.954;2024-02-26T07:02:12;54.40;44.81;66.80;;
81493;Laerm;70900;51.798;10.954;2024-02-26T07:04:38;58.90;46.29;70.74;;
81493;Laerm;70900;51.798;10.954;2024-02-26T07:07:03;56.19;44.79;69.85;;
81493;Laerm;70900;51.798;10.954;2024-02-26T07:09:29;56.61;46.84;69.28;;
81493;Laerm;70900;51.798;10.954;2024-02-26T07:11:54;55.19;45.83;69.49;;
81493;Laerm;70900;51.798;10.954;2024-02-26T07:14:19;55.52;45.25;72.16;;
81493;Laerm;70900;51.798;10.954;2024-02-26T07:16:44;57.27;45.45;72.43;;
81493;Laerm;70900;51.798;10.954;2024-02-26T07:19:10;58.07;44.60;72.97;;
81493;Laerm;70900;51.798;10.954;2024-02-26T07:21:35;55.50;45.62;67.02;;
81493;Laerm;70900;51.798;10.954;2024-02-26T07:24:00;55.37;44.45;66.53;;
81493;Laerm;70900;51.798;10.954;2024-02-26T07:26:26;57.49;43.99;71.70;;
81493;Laerm;70900;51.798;10.954;2024-02-26T07:28:52;56.09;46.10;68.90;;
81493;Laerm;70900;51.798;10.954;2024-02-26T07:31:17;55.03;45.13;69.59;;
81493;Laerm;70900;51.798;10.954;2024-02-26T07:33:42;58.25;45.11;74.18;;
81493;Laerm;70900;51.798;10.954;2024-02-26T07:36:08;57.10;44.94;68.81;;
81493;Laerm;70900;51.798;10.954;2024-02-26T07:38:33;59.22;45.13;77.17;;
81493;Laerm;70900;51.798;10.954;2024-02-26T07:40:59;55.42;42.79;67.34;;
81493;Laerm;70900;51.798;10.954;2024-02-26T07:43:24;56.82;44.84;69.98;;
81493;Laerm;70900;51.798;10.954;2024-02-26T07:45:49;52.91;44.27;65.88;;
81493;Laerm;70900;51.798;10.954;2024-02-26T07:48:15;50.14;43.03;64.35;;
81493;Laerm;70900;51.798;10.954;2024-02-26T07:50:40;55.65;44.60;68.22;;
81493;Laerm;70900;51.798;10.954;2024-02-26T07:53:06;57.34;43.02;76.61;;
81493;Laerm;70900;51.798;10.954;2024-02-26T07:55:31;59.91;44.31;76.19;;
81493;Laerm;70900;51.798;10.954;2024-02-26T07:57:56;55.21;43.03;68.73;;
81493;Laerm;70900;51.798;10.954;2024-02-26T08:00:22;47.27;42.59;55.04;;
81493;Laerm;70900;51.798;10.954;2024-02-26T08:02:47;56.22;44.84;67.90;;
81493;Laerm;70900;51.798;10.954;2024-02-26T08:05:13;54.23;44.00;65.34;;
81493;Laerm;70900;51.798;10.954;2024-02-26T08:07:38;53.86;43.85;68.82;;
81493;Laerm;70900;51.798;10.954;2024-02-26T08:10:03;53.97;43.25;68.61;;
81493;Laerm;70900;51.798;10.954;2024-02-26T08:12:29;52.69;43.70;65.81;;
81493;Laerm;70900;51.798;10.954;2024-02-26T08:14:54;55.07;42.16;68.02;;
81493;Laerm;70900;51.798;10.954;2024-02-26T08:17:20;55.24;42.21;65.55;;
81493;Laerm;70900;51.798;10.954;2024-02-26T08:19:46;58.04;43.91;69.61;;
81493;Laerm;70900;51.798;10.954;2024-02-26T08:22:11;61.56;45.64;76.35;;
81493;Laerm;70900;51.798;10.954;2024-02-26T08:24:41;56.91;43.72;72.97;;
81493;Laerm;70900;51.798;10.954;2024-02-26T08:27:07;56.55;44.46;68.29;;
81493;Laerm;70900;51.798;10.954;2024-02-26T08:29:32;57.16;43.03;69.44;;
81493;Laerm;70900;51.798;10.954;2024-02-26T08:31:57;58.57;42.12;71.66;;
81493;Laerm;70900;51.798;10.954;2024-02-26T08:34:22;60.07;43.94;79.50;;
81493;Laerm;70900;51.798;10.954;2024-02-26T08:36:48;52.10;43.49;66.01;;
81493;Laerm;70900;51.798;10.954;2024-02-26T08:39:14;62.80;44.06;81.25;;
81493;Laerm;70900;51.798;10.954;2024-02-26T08:41:39;56.41;41.99;67.59;;
81493;Laerm;70900;51.798;10.954;2024-02-26T08:44:05;55.49;42.12;69.09;;
81493;Laerm;70900;51.798;10.954;2024-02-26T08:46:30;56.96;43.15;70.89;;
81493;Laerm;70900;51.798;10.954;2024-02-26T08:48:56;60.00;45.10;68.52;;
81493;Laerm;70900;51.798;10.954;2024-02-26T08:51:21;56.68;44.88;67.87;;
81493;Laerm;70900;51.798;10.954;2024-02-26T08:53:47;56.95;43.71;67.41;;
81493;Laerm;70900;51.798;10.954;2024-02-26T08:56:12;52.22;42.23;65.98;;
81493;Laerm;70900;51.798;10.954;2024-02-26T08:58:42;54.87;40.50;67.24;;
81493;Laerm;70900;51.798;10.954;2024-02-26T09:01:07;53.95;44.18;64.65;;
81493;Laerm;70900;51.798;10.954;2024-02-26T09:03:32;57.00;43.10;68.81;;
81493;Laerm;70900;51.798;10.954;2024-02-26T09:05:58;54.35;42.34;68.16;;
81493;Laerm;70900;51.798;10.954;2024-02-26T09:08:23;63.51;43.15;81.28;;
81493;Laerm;70900;51.798;10.954;2024-02-26T09:10:49;54.02;42.76;67.82;;
81493;Laerm;70900;51.798;10.954;2024-02-26T09:13:14;53.45;43.94;64.19;;
81493;Laerm;70900;51.798;10.954;2024-02-26T09:15:39;56.70;44.98;68.19;;
81493;Laerm;70900;51.798;10.954;2024-02-26T09:18:05;56.99;43.06;68.40;;
81493;Laerm;70900;51.798;10.954;2024-02-26T09:20:30;57.04;43.14;73.55;;
81493;Laerm;70900;51.798;10.954;2024-02-26T09:22:55;57.85;43.67;71.56;;
81493;Laerm;70900;51.798;10.954;2024-02-26T09:25:21;61.02;43.95;73.52;;
81493;Laerm;70900;51.798;10.954;2024-02-26T09:27:46;55.47;45.15;70.39;;
81493;Laerm;70900;51.798;10.954;2024-02-26T09:30:12;59.46;45.40;76.56;;
81493;Laerm;70900;51.798;10.954;2024-02-26T09:32:38;52.70;45.32;65.50;;
81493;Laerm;70900;51.798;10.954;2024-02-26T09:35:04;56.93;44.16;68.55;;
81493;Laerm;70900;51.798;10.954;2024-02-26T09:37:30;54.84;43.60;75.62;;
81493;Laerm;70900;51.798;10.954;2024-02-26T09:39:55;56.35;43.79;72.47;;
81493;Laerm;70900;51.798;10.954;2024-02-26T09:42:20;58.88;45.21;69.93;;
81493;Laerm;70900;51.798;10.954;2024-02-26T09:44:50;59.02;44.49;72.94;;
81493;Laerm;70900;51.798;10.954;2024-02-26T09:47:17;52.86;42.05;67.00;;
81493;Laerm;70900;51.798;10.954;2024-02-26T09:49:42;60.47;43.97;76.20;;
81493;Laerm;70900;51.798;10.954;2024-02-26T09:52:08;58.40;46.22;68.16;;
81493;Laerm;70900;51.798;10.954;2024-02-26T09:54:34;58.37;46.07;70.24;;
81493;Laerm;70900;51.798;10.954;2024-02-26T09:57:00;58.02;44.38;70.04;;
81493;Laerm;70900;51.798;10.954;2024-02-26T09:59:28;55.59;41.79;68.11;;
81493;Laerm;70900;51.798;10.954;2024-02-26T10:01:54;55.86;42.48;70.04;;
81493;Laerm;70900;51.798;10.954;2024-02-26T10:04:21;54.26;43.07;69.12;;
81493;Laerm;70900;51.798;10.954;2024-02-26T10:06:46;55.42;42.12;68.27;;
81493;Laerm;70900;51.798;10.954;2024-02-26T10:09:12;54.39;42.15;67.30;;
81493;Laerm;70900;51.798;10.954;2024-02-26T10:11:37;55.82;43.51;66.82;;
81493;Laerm;70900;51.798;10.954;2024-02-26T10:14:03;52.06;43.55;66.68;;
81493;Laerm;70900;51.798;10.954;2024-02-26T10:16:29;58.51;42.65;73.47;;
81493;Laerm;70900;51.798;10.954;2024-02-26T10:18:54;54.60;40.19;67.11;;
81493;Laerm;70900;51.798;10.954;2024-02-26T10:21:20;57.50;41.61;71.35;;
81493;Laerm;70900;51.798;10.954;2024-02-26T10:23:45;59.49;43.93;75.98;;
81493;Laerm;70900;51.798;10.954;2024-02-26T10:26:12;52.15;42.14;65.87;;
81493;Laerm;70900;51.798;10.954;2024-02-26T10:28:41;57.04;44.07;69.49;;
81493;Laerm;70900;51.798;10.954;2024-02-26T10:31:07;57.16;42.77;71.47;;
81493;Laerm;70900;51.798;10.954;2024-02-26T10:33:33;56.58;42.38;71.29;;
81493;Laerm;70900;51.798;10.954;2024-02-26T10:36:01;62.78;41.62;80.70;;
81493;Laerm;70900;51.798;10.954;2024-02-26T10:38:26;54.52;41.55;66.79;;
81493;Laerm;70900;51.798;10.954;2024-02-26T10:40:51;54.24;41.75;67.31;;
81493;Laerm;70900;51.798;10.954;2024-02-26T10:43:17;56.32;42.38;72.30;;
81493;Laerm;70900;51.798;10.954;2024-02-26T10:45:43;57.21;40.55;75.19;;
81493;Laerm;70900;51.798;10.954;2024-02-26T10:48:09;54.68;41.27;69.99;;
81493;Laerm;70900;51.798;10.954;2024-02-26T10:50:35;51.59;39.67;64.53;;
81493;Laerm;70900;51.798;10.954;2024-02-26T10:53:00;64.16;49.12;84.45;;
81493;Laerm;70900;51.798;10.954;2024-02-26T10:55:26;57.95;39.37;71.14;;
81493;Laerm;70900;51.798;10.954;2024-02-26T10:57:52;54.53;39.77;68.56;;
81493;Laerm;70900;51.798;10.954;2024-02-26T11:00:18;56.90;39.36;69.20;;
81493;Laerm;70900;51.798;10.954;2024-02-26T11:02:44;53.23;42.38;66.70;;
81493;Laerm;70900;51.798;10.954;2024-02-26T11:05:09;55.87;42.09;68.07;;
81493;Laerm;70900;51.798;10.954;2024-02-26T11:07:36;53.15;40.60;77.34;;
81493;Laerm;70900;51.798;10.954;2024-02-26T11:10:03;56.85;40.90;70.26;;
81493;Laerm;70900;51.798;10.954;2024-02-26T11:12:29;53.22;39.95;66.98;;
81493;Laerm;70900;51.798;10.954;2024-02-26T11:14:55;58.34;39.63;71.02;;
81493;Laerm;70900;51.798;10.954;2024-02-26T11:17:22;63.89;41.20;81.92;;
81493;Laerm;70900;51.798;10.954;2024-02-26T11:19:47;55.98;42.06;68.84;;
81493;Laerm;70900;51.798;10.954;2024-02-26T11:22:13;54.51;42.15;65.39;;
81493;Laerm;70900;51.798;10.954;2024-02-26T11:24:38;53.69;40.83;65.64;;
81493;Laerm;70900;51.798;10.954;2024-02-26T11:27:06;56.81;42.47;68.50;;
81493;Laerm;70900;51.798;10.954;2024-02-26T11:29:34;55.61;41.39;70.43;;
81493;Laerm;70900;51.798;10.954;2024-02-26T11:32:02;48.61;39.89;63.18;;
81493;Laerm;70900;51.798;10.954;2024-02-26T11:34:28;58.28;40.42;73.74;;
81493;Laerm;70900;51.798;10.954;2024-02-26T11:36:53;56.50;39.75;74.76;;
81493;Laerm;70900;51.798;10.954;2024-02-26T11:39:19;54.85;40.19;66.80;;
81493;Laerm;70900;51.798;10.954;2024-02-26T11:41:44;51.97;42.04;63.68;;
81493;Laerm;70900;51.798;10.954;2024-02-26T11:44:10;54.46;40.23;68.40;;
81493;Laerm;70900;51.798;10.954;2024-02-26T11:46:39;51.25;40.85;64.71;;
81493;Laerm;70900;51.798;10.954;2024-02-26T11:51:50;52.97;40.53;67.88;;
81493;Laerm;70900;51.798;10.954;2024-02-26T11:54:37;55.21;40.92;68.60;;
81493;Laerm;70900;51.798;10.954;2024-02-26T11:57:02;56.06;40.71;66.64;;
81493;Laerm;70900;51.798;10.954;2024-02-26T11:59:39;57.27;39.90;76.65;;
81493;Laerm;70900;51.798;10.954;2024-02-26T12:02:06;56.59;41.16;68.35;;
81493;Laerm;70900;51.798;10.954;2024-02-26T12:04:32;57.21;43.42;69.88;;
81493;Laerm;70900;51.798;10.954;2024-02-26T12:07:00;53.61;40.82;67.82;;
81493;Laerm;70900;51.798;10.954;2024-02-26T12:09:38;56.13;41.80;67.61;;
81493;Laerm;70900;51.798;10.954;2024-02-26T12:12:07;56.04;41.87;67.92;;
81493;Laerm;70900;51.798;10.954;2024-02-26T12:14:55;54.81;40.34;68.12;;
81493;Laerm;70900;51.798;10.954;2024-02-26T12:17:19;61.48;41.08;72.16;;
81493;Laerm;70900;51.798;10.954;2024-02-26T12:19:45;64.49;45.52;80.48;;
81493;Laerm;70900;51.798;10.954;2024-02-26T12:22:12;60.56;42.58;75.90;;
81493;Laerm;70900;51.798;10.954;2024-02-26T12:24:38;55.70;42.44;74.29;;
81493;Laerm;70900;51.798;10.954;2024-02-26T12:27:03;51.48;41.54;65.21;;
81493;Laerm;70900;51.798;10.954;2024-02-26T12:29:29;45.38;39.95;53.72;;
81493;Laerm;70900;51.798;10.954;2024-02-26T12:31:54;63.60;40.20;84.02;;
81493;Laerm;70900;51.798;10.954;2024-02-26T12:34:19;60.48;40.31;77.83;;
81493;Laerm;70900;51.798;10.954;2024-02-26T12:36:45;50.85;39.14;67.28;;
81493;Laerm;70900;51.798;10.954;2024-02-26T12:39:10;51.31;40.74;67.89;;
81493;Laerm;70900;51.798;10.954;2024-02-26T12:41:37;50.69;39.51;66.03;;
81493;Laerm;70900;51.798;10.954;2024-02-26T12:44:03;58.17;39.43;75.85;;
81493;Laerm;70900;51.798;10.954;2024-02-26T12:46:28;52.47;39.74;67.97;;
81493;Laerm;70900;51.798;10.954;2024-02-26T12:48:57;52.07;38.73;69.07;;
81493;Laerm;70900;51.798;10.954;2024-02-26T12:51:23;57.18;41.41;70.97;;
81493;Laerm;70900;51.798;10.954;2024-02-26T12:53:49;56.22;40.45;73.69;;
81493;Laerm;70900;51.798;10.954;2024-02-26T12:56:15;52.21;40.72;67.41;;
81493;Laerm;70900;51.798;10.954;2024-02-26T12:58:41;60.26;41.36;76.09;;
81493;Laerm;70900;51.798;10.954;2024-02-26T13:01:06;55.11;40.63;70.46;;
81493;Laerm;70900;51.798;10.954;2024-02-26T13:03:33;46.27;38.91;65.78;;
81493;Laerm;70900;51.798;10.954;2024-02-26T13:05:59;58.03;40.52;71.67;;
81493;Laerm;70900;51.798;10.954;2024-02-26T13:08:25;53.96;38.01;66.36;;
81493;Laerm;70900;51.798;10.954;2024-02-26T13:10:51;52.70;38.21;66.22;;
81493;Laerm;70900;51.798;10.954;2024-02-26T13:13:17;53.32;39.08;68.77;;
81493;Laerm;70900;51.798;10.954;2024-02-26T13:15:43;52.10;37.68;63.68;;
81493;Laerm;70900;51.798;10.954;2024-02-26T13:18:12;58.75;38.19;71.66;;
81493;Laerm;70900;51.798;10.954;2024-02-26T13:20:37;56.29;38.66;70.88;;
81493;Laerm;70900;51.798;10.954;2024-02-26T13:23:09;55.66;38.15;69.09;;
81493;Laerm;70900;51.798;10.954;2024-02-26T13:25:35;54.25;39.16;66.63;;
81493;Laerm;70900;51.798;10.954;2024-02-26T13:30:35;49.48;40.19;64.73;;